»·PEaware :: N7975R KTEX-KEEO

N7975R :: KTEX-KEEO

FLIGHT INFORMATION

Flight Status: Arrived
Operator: Privately registered:
United States
More flights under this callsign
Pilot: Michael F. (8929)
Aircraft: BEECH AIRCRAFT BONANZA
(BE35)
More flights by this aircraft type
Origin: KTEX Telluride Regl
United States
Destination: KEEO Meeker
United States
More flights between these airports :: More routes between these airports
Route: ETL V382 ECNOF V382 JNC V26 HAPRA
File this flight plan on PilotEdge
Remarks:
Altitude:
(Current/Filed)
12,500ft
Speed:
(Current/Filed)
160kts
Departed: 16-May-18 07:52 PM
Arrived: 16-May-18 08:53 PM
Distance/Time
Traveled:
126nm/1:01
Distance/Time
To Go:
Arrived

Flight Plot

Page will automatically refresh every two minutes.

Flight plan parsing failed; only flown route is shown


Map Options




Map Legend


Flown Route
Filed Route
Departure Airport
Arrival Airport
Navaid (VOR, NDB)
Fix

Horizontal Profiles

Position Reports

Time Latitude Longitude Heading Altitude Ground
Speed
16-May-18 19:31 37.953661 -107.901017 194 9080ft 0kts
16-May-18 19:32 37.953661 -107.901017 194 9080ft 0kts
16-May-18 19:33 37.953660 -107.901017 194 9080ft 0kts
16-May-18 19:34 37.953660 -107.901017 194 9080ft 0kts
16-May-18 19:35 37.953660 -107.901017 194 9080ft 0kts
16-May-18 19:36 37.953659 -107.901017 194 9080ft 0kts
16-May-18 19:37 37.953659 -107.901017 194 9080ft 0kts
16-May-18 19:38 37.953659 -107.901018 194 9080ft 0kts
16-May-18 19:39 37.953658 -107.901018 194 9080ft 0kts
16-May-18 19:40 37.953658 -107.901018 194 9080ft 0kts
16-May-18 19:41 37.953658 -107.901018 194 9080ft 0kts
16-May-18 19:42 37.953658 -107.901018 194 9080ft 0kts
16-May-18 19:43 37.953657 -107.901018 194 9080ft 0kts
16-May-18 19:44 37.953657 -107.901018 194 9080ft 0kts
16-May-18 19:45 37.953657 -107.901018 194 9080ft 0kts
16-May-18 19:46 37.953657 -107.901018 194 9080ft 0kts
16-May-18 19:47 37.953657 -107.901018 194 9080ft 0kts
16-May-18 19:48 37.952675 -107.898061 105 9080ft 17kts
16-May-18 19:49 37.952218 -107.896727 155 9080ft 0kts
16-May-18 19:50 37.952217 -107.896727 155 9080ft 0kts
16-May-18 19:51 37.952216 -107.896726 155 9080ft 0kts
16-May-18 19:52 37.952671 -107.903431 285 9081ft 68kts
16-May-18 19:53 37.959656 -107.934288 286 9253ft 107kts
16-May-18 19:54 37.970410 -107.967810 301 9991ft 106kts
16-May-18 19:55 37.978219 -108.001732 277 10654ft 103kts
16-May-18 19:56 37.984969 -108.039054 281 11111ft 113kts
16-May-18 19:57 37.989325 -108.080300 287 11538ft 119kts
16-May-18 19:58 38.002979 -108.117933 288 11944ft 118kts
16-May-18 19:59 38.013152 -108.157461 277 12347ft 119kts
16-May-18 20:00 38.024499 -108.200832 283 12401ft 140kts
16-May-18 20:01 38.037716 -108.249276 282 12372ft 148kts
16-May-18 20:02 38.071722 -108.282114 338 12340ft 175kts
16-May-18 20:03 38.119309 -108.285234 5 12329ft 173kts
16-May-18 20:04 38.169026 -108.276401 5 12301ft 182kts
16-May-18 20:05 38.217827 -108.267660 5 12307ft 174kts
16-May-18 20:06 38.264209 -108.273865 339 12296ft 167kts
16-May-18 20:07 38.309300 -108.289184 344 12285ft 169kts
16-May-18 20:08 38.357764 -108.298213 346 12263ft 179kts
16-May-18 20:09 38.404721 -108.313721 332 12272ft 170kts
16-May-18 20:10 38.444440 -108.342092 317 12267ft 163kts
16-May-18 20:11 38.479372 -108.378688 312 12258ft 160kts
16-May-18 20:12 38.521148 -108.400031 309 12233ft 168kts
16-May-18 20:13 38.550857 -108.440367 311 12490ft 152kts
16-May-18 20:14 38.588498 -108.472414 328 12479ft 170kts
16-May-18 20:15 38.632490 -108.494287 335 12476ft 168kts
16-May-18 20:16 38.675685 -108.515883 328 12470ft 165kts
16-May-18 20:17 38.715502 -108.544341 320 12461ft 163kts
16-May-18 20:18 38.753127 -108.575595 320 12546ft 159kts
16-May-18 20:19 38.791568 -108.604088 325 12526ft 163kts
16-May-18 20:20 38.832717 -108.631461 326 12512ft 164kts
16-May-18 20:21 38.873303 -108.659797 324 12503ft 168kts
16-May-18 20:22 38.913886 -108.689052 324 12504ft 167kts
16-May-18 20:23 38.954466 -108.717777 324 12504ft 165kts
16-May-18 20:24 38.994599 -108.746242 324 12504ft 164kts
16-May-18 20:25 39.035098 -108.775141 324 12498ft 168kts
16-May-18 20:26 39.079351 -108.783451 31 12591ft 176kts
16-May-18 20:27 39.111417 -108.745982 48 13227ft 140kts
16-May-18 20:28 39.135539 -108.706238 54 13389ft 152kts
16-May-18 20:29 39.176609 -108.675472 29 13365ft 181kts
16-May-18 20:30 39.220328 -108.641174 33 13368ft 185kts
16-May-18 20:31 39.261839 -108.604015 36 13380ft 176kts
16-May-18 20:32 39.301881 -108.566166 36 13376ft 179kts
16-May-18 20:33 39.341813 -108.529916 34 13391ft 173kts
16-May-18 20:34 39.384380 -108.494232 35 13379ft 184kts
16-May-18 20:35 39.424451 -108.456771 34 13399ft 174kts
16-May-18 20:36 39.464700 -108.422780 33 13404ft 172kts
16-May-18 20:37 39.506780 -108.387338 33 13394ft 183kts
16-May-18 20:38 39.548282 -108.352875 32 13422ft 173kts
16-May-18 20:39 39.587514 -108.320616 33 13431ft 172kts
16-May-18 20:40 39.621111 -108.292816 33 13436ft 172kts
16-May-18 20:41 39.661398 -108.259385 33 13440ft 171kts
16-May-18 20:42 39.708255 -108.220464 33 13447ft 170kts
16-May-18 20:43 39.748183 -108.187254 33 13454ft 170kts
16-May-18 20:44 39.788130 -108.153950 33 13459ft 171kts
16-May-18 20:45 39.828216 -108.120503 33 13465ft 170kts
16-May-18 20:46 39.869374 -108.085894 33 13095ft 190kts
16-May-18 20:47 39.910833 -108.039030 74 12124ft 206kts
16-May-18 20:48 39.932806 -107.968549 68 11132ft 210kts
16-May-18 20:49 39.962337 -107.921124 24 10314ft 211kts
16-May-18 20:50 40.014889 -107.892341 34 9319ft 191kts
16-May-18 20:51 40.054322 -107.856493 38 8283ft 157kts
16-May-18 20:52 40.062368 -107.871205 215 6627ft 91kts
16-May-18 20:53 40.046866 -107.887943 219 6375ft 15kts

Navigation Log

Ident Type
Flight plan parsing failed, navigation log unavailable